• Join FlightAware (Why Join?)
  • Login
  • US Flag 
11:59PM EDT


 

Airport Tracker/Info


-or-


 

Live Flight TrackerFlight Track Log ✈ AER966 ✈ 04-May-2013 ✈ PASN / SNP - PANC

Flight Track Log - Related Links

Times and Time Zones

All times are in EDT time to prevent confusion due to time zone crossing. See the AER966 flight status page for this flight to view local times or setup timezone preferences in your user account.

Time Position Orientation Groundspeed Altitude Reporting Facility
EDT Latitude Longitude Course Direction KTS MPH feet Rate Location/Type
06:12PM 57.2000 -170.1333 65° Northeast 130 150 3,200  Level Anchorage Center
06:13PM 57.2167 -170.0667 65° Northeast 150 173 4,900 1,560 Climbing Anchorage Center
06:14PM 57.3756 -169.5344 60° Northeast  Level Estimated
06:14PM 57.2333 -169.9833 70° East 160 184 6,400  Level Anchorage Center
06:15PM 57.4101 -169.4189 61° Northeast  Level Estimated
06:15PM 57.2500 -169.9000 70° East 170 196 7,800  Level Anchorage Center
06:16PM 57.4445 -169.3033 61° Northeast  Level Estimated
06:16PM 57.2667 -169.8167 70° East 180 207 9,400  Level Anchorage Center
06:17PM 57.2833 -169.7333 70° East 180 207 11,000 1,620 Climbing Anchorage Center
06:18PM 57.3000 -169.6500 70° East 180 207 12,700 1,500 Climbing Anchorage Center
06:19PM 57.3333 -169.5500 58° Northeast 190 219 14,000 1,200 Climbing Anchorage Center
06:20PM 57.3500 -169.4500 73° East 210 242 15,200 1,260 Climbing Anchorage Center
06:21PM 57.3667 -169.3500 73° East 210 242 16,600 1,200 Climbing Anchorage Center
06:22PM 57.4000 -169.2500 58° Northeast 220 253 17,700 900 Climbing Anchorage Center
06:23PM 57.4167 -169.1333 75° East 220 253 18,500 840 Climbing Anchorage Center
06:24PM 57.4333 -169.0500 70° East 230 265 19,400 900 Climbing Anchorage Center
06:25PM 57.4500 -168.9333 75° East 230 265 20,300 900 Climbing Anchorage Center
06:26PM 57.4833 -168.8333 58° Northeast 240 276 21,300 900 Climbing Anchorage Center
06:27PM 57.5000 -168.7167 75° East 230 265 22,100 840 Climbing Anchorage Center
06:28PM 57.5333 -168.6000 62° Northeast 230 265 23,000 780 Climbing Anchorage Center
06:29PM 57.5500 -168.5000 73° East 230 265 23,700 600 Climbing Anchorage Center
06:30PM 57.5667 -168.3667 77° East 240 276 24,300 600 Climbing Anchorage Center
06:31PM 57.6000 -168.2667 58° Northeast 240 276 25,000 300 Climbing Anchorage Center
06:32PM 57.6167 -168.1333 77° East 250 288 25,000  Level Anchorage Center
06:33PM 57.6500 -168.0000 65° Northeast 270 311 25,000  Level Anchorage Center
06:34PM 57.6667 -167.8667 77° East 290 334 25,000  Level Anchorage Center
06:35PM 57.7000 -167.7167 67° East 280 322 25,000  Level Anchorage Center
06:36PM 57.7167 -167.5833 77° East 280 322 25,000  Level Anchorage Center
06:37PM 57.7667 -167.4500 55° Northeast 290 334 25,000  Level Anchorage Center
06:38PM 57.7833 -167.3000 78° East 290 334 25,000  Level Anchorage Center
06:39PM 57.8167 -167.1500 67° East 290 334 25,000  Level Anchorage Center
06:40PM 57.8333 -167.0167 77° East 280 322 25,000  Level Anchorage Center
06:41PM 57.8667 -166.8667 67° East 290 334 25,000  Level Anchorage Center
06:42PM 57.8833 -166.7333 77° East 280 322 25,000  Level Anchorage Center
06:43PM 57.9167 -166.5833 67° East 280 322 25,000  Level Anchorage Center
06:44PM 57.9333 -166.4500 77° East 280 322 25,000  Level Anchorage Center
06:45PM 57.9667 -166.3167 65° Northeast 280 322 25,000  Level Anchorage Center
06:46PM 57.9833 -166.1667 78° East 280 322 25,000  Level Anchorage Center
06:47PM 58.0167 -166.0167 67° East 300 345 25,000  Level Anchorage Center
06:48PM 58.0500 -165.8833 65° Northeast 280 322 25,000  Level Anchorage Center
06:49PM 58.0667 -165.7333 78° East 280 322 25,000  Level Anchorage Center
06:50PM 58.1000 -165.5833 67° East 280 322 25,000  Level Anchorage Center
06:51PM 58.1167 -165.4500 77° East 280 322 25,000  Level Anchorage Center
06:52PM 58.1500 -165.3000 67° East 280 322 25,000  Level Anchorage Center
06:53PM 58.1667 -165.1500 78° East 290 334 25,000  Level Anchorage Center
06:54PM 58.2000 -165.0167 65° Northeast 290 334 25,000  Level Anchorage Center
06:55PM 58.2167 -164.8667 78° East 280 322 25,000  Level Anchorage Center
06:56PM 58.2333 -164.7167 78° East 280 322 25,000  Level Anchorage Center
06:57PM 58.2667 -164.5833 65° Northeast 270 311 25,000  Level Anchorage Center
06:58PM 58.2833 -164.4333 78° East 290 334 25,000  Level Anchorage Center
06:59PM 58.3167 -164.2833 67° East 280 322 25,000  Level Anchorage Center
07:01PM 58.3500 -164.0500 75° East 280 322 25,000  Level Anchorage Center
07:02PM 58.3667 -163.9000 78° East 280 322 25,000  Level Anchorage Center
07:03PM 58.4000 -163.7667 64° Northeast 280 322 25,000  Level Anchorage Center
07:04PM 58.4167 -163.6167 78° East 280 322 25,000  Level Anchorage Center
07:05PM 58.4500 -163.4667 67° East 280 322 25,000  Level Anchorage Center
07:06PM 58.4667 -163.3167 78° East 290 334 25,000  Level Anchorage Center
07:07PM 58.4833 -163.1667 78° East 290 334 25,000  Level Anchorage Center
07:08PM 58.5167 -163.0167 67° East 290 334 25,000  Level Anchorage Center
07:09PM 58.5333 -162.8667 78° East 300 345 25,000  Level Anchorage Center
07:10PM 58.5500 -162.7167 78° East 290 334 25,000  Level Anchorage Center
07:11PM 58.5833 -162.5667 67° East 310 357 25,000  Level Anchorage Center
07:12PM 58.6000 -162.4000 79° East 290 334 25,000  Level Anchorage Center
07:13PM 58.6167 -162.2667 76° East 290 334 25,000  Level Anchorage Center
07:15PM 58.6833 -161.9167 70° East 300 345 25,000  Level Anchorage Center
07:16PM 58.7167 -161.7833 64° Northeast 280 322 25,000  Level Anchorage Center
07:17PM 58.7500 -161.6333 67° East 290 334 25,000  Level Anchorage Center
07:18PM 58.8000 -161.5000 54° Northeast 290 334 25,000  Level Anchorage Center
07:19PM 58.8333 -161.3667 64° Northeast 290 334 25,000  Level Anchorage Center
07:20PM 58.8667 -161.2333 64° Northeast 280 322 25,000  Level Anchorage Center
07:21PM 58.9000 -161.0833 67° East 280 322 25,000  Level Anchorage Center
07:22PM 58.9333 -160.9500 64° Northeast 290 334 25,000  Level Anchorage Center
07:23PM 58.9667 -160.8000 67° East 290 334 25,000  Level Anchorage Center
07:24PM 59.0167 -160.6667 54° Northeast 300 345 25,000  Level Anchorage Center
07:25PM 59.0500 -160.5333 64° Northeast 290 334 25,000  Level Anchorage Center
07:26PM 59.0833 -160.3833 67° East 300 345 25,000  Level Anchorage Center
07:27PM 59.1167 -160.2333 67° East 280 322 25,000  Level Anchorage Center
07:28PM 59.1500 -160.1000 64° Northeast 290 334 25,000  Level Anchorage Center
07:29PM 59.1833 -159.9500 66° East 280 322 25,000  Level Anchorage Center
07:30PM 59.2167 -159.8000 66° East 290 334 25,000  Level Anchorage Center
07:31PM 59.2500 -159.6667 64° Northeast 280 322 25,000  Level Anchorage Center
07:32PM 59.2833 -159.5167 66° East 280 322 25,000  Level Anchorage Center
07:33PM 59.3167 -159.3833 64° Northeast 280 322 25,000  Level Anchorage Center
07:34PM 59.3667 -159.2333 57° Northeast 290 334 25,000  Level Anchorage Center
07:35PM 59.4000 -159.0833 66° East 290 334 25,000  Level Anchorage Center
07:36PM 59.4333 -158.9500 64° Northeast 280 322 25,000  Level Anchorage Center
07:37PM 59.4500 -158.8000 78° East 280 322 25,000  Level Anchorage Center
07:38PM 59.5000 -158.6667 54° Northeast 290 334 25,000  Level Anchorage Center
07:39PM 59.5167 -158.5167 78° East 270 311 25,000  Level Anchorage Center
07:40PM 59.5667 -158.4000 50° Northeast 290 334 25,000  Level Anchorage Center
07:41PM 59.5833 -158.2667 76° East 260 299 25,000  Level Anchorage Center
07:42PM 59.6167 -158.1167 66° East 280 322 25,000  Level Anchorage Center
07:43PM 59.6500 -157.9833 64° Northeast 280 322 25,000  Level Anchorage Center
07:44PM 59.6667 -157.8333 78° East 280 322 25,000  Level Anchorage Center
07:45PM 59.7000 -157.7000 64° Northeast 260 299 25,000  Level Anchorage Center
07:46PM 59.7333 -157.5500 66° East 280 322 25,000  Level Anchorage Center
07:47PM 59.7667 -157.4167 64° Northeast 260 299 25,000  Level Anchorage Center
07:48PM 59.8000 -157.2667 66° East 280 322 25,000  Level Anchorage Center
07:49PM 59.8333 -157.1333 64° Northeast 270 311 25,000  Level Anchorage Center
07:50PM 59.8500 -156.9833 77° East 280 322 25,000  Level Anchorage Center
07:51PM 59.8833 -156.8333 66° East 290 334 25,000  Level Anchorage Center
07:52PM 59.9167 -156.7000 63° Northeast 280 322 25,000  Level Anchorage Center
07:53PM 59.9500 -156.5333 68° East 270 311 25,000  Level Anchorage Center
07:54PM 59.9833 -156.3833 66° East 280 322 25,000  Level Anchorage Center
07:55PM 60.0000 -156.2333 77° East 280 322 25,000  Level Anchorage Center
07:56PM 60.0333 -156.1000 63° Northeast 270 311 25,000  Level Anchorage Center
07:57PM 60.0667 -155.9500 66° East 280 322 25,000  Level Anchorage Center
07:58PM 60.1000 -155.8167 63° Northeast 280 322 25,000  Level Anchorage Center
07:59PM 60.1333 -155.6667 66° East 280 322 25,000  Level Anchorage Center
08:00PM 60.1500 -155.5167 77° East 280 322 25,000  Level Anchorage Center
08:01PM 60.1833 -155.3833 63° Northeast 280 322 25,000  Level Anchorage Center
08:02PM 60.2000 -155.2333 77° East 270 311 25,000  Level Anchorage Center
08:03PM 60.2333 -155.0833 66° East 280 322 25,000  Level Anchorage Center
08:04PM 60.2667 -154.9500 63° Northeast 270 311 25,000  Level Anchorage Center
08:05PM 60.2833 -154.8000 77° East 270 311 25,000  Level Anchorage Center
08:06PM 60.3167 -154.6667 63° Northeast 280 322 25,000  Level Anchorage Center
08:07PM 60.3500 -154.5167 66° East 270 311 25,000  Level Anchorage Center
08:08PM 60.3667 -154.3667 77° East 270 311 25,000  Level Anchorage Center
08:09PM 60.4000 -154.2167 66° East 280 322 25,000  Level Anchorage Center
08:10PM 60.4333 -154.0833 63° Northeast 280 322 25,000  Level Anchorage Center
08:11PM 60.4500 -153.9333 77° East 280 322 25,000  Level Anchorage Center
08:12PM 60.4833 -153.7833 66° East 280 322 25,000  Level Anchorage Center
08:13PM 60.5167 -153.6333 66° East 280 322 25,000  Level Anchorage Center
08:14PM 60.5333 -153.4833 77° East 280 322 25,000  Level Anchorage Center
08:15PM 60.5667 -153.3500 63° Northeast 270 311 25,000  Level Anchorage Center
08:16PM 60.5833 -153.1667 79° East 290 334 25,100  Climbing Anchorage Center
08:17PM 60.6167 -153.0500 60° Northeast 270 311 25,100  Level Anchorage Center
08:18PM 60.6333 -152.8667 79° East 290 334 25,100  Level Anchorage Center
08:19PM 60.6667 -152.7167 66° East 280 322 25,100 -600 Level Anchorage Center
08:20PM 60.6833 -152.5667 77° East 280 322 24,000 -1,320 Descending Anchorage Center
08:21PM 60.7167 -152.4167 66° East 290 334 22,500 -1,500 Descending Anchorage Center
08:22PM 60.7333 -152.2500 78° East 280 322 21,000 -1,500 Descending Anchorage Center
08:23PM 60.7667 -152.1000 65° Northeast 290 334 19,500 -1,560 Descending Anchorage Center
08:24PM 60.7833 -151.9333 78° East 290 334 17,900 -1,620 Descending Anchorage Center
08:25PM 60.8167 -151.7833 65° Northeast 280 322 16,300 -1,560 Descending Anchorage Center
08:26PM 60.8333 -151.6333 77° East 280 322 14,800 -1,500 Descending Anchorage Center
08:28PM 60.8742 -151.4501 73° East  Level FlightAware Approximate
08:35PM 61.0588 -150.4736 55° Northeast  Level FlightAware Approximate
08:36PM 61.0894 -150.3367 67° East  Level FlightAware Approximate
08:37PM 61.1189 -150.1982 65° Northeast  Level FlightAware Approximate
08:38PM 61.1495 -150.0606 65° Northeast  Level FlightAware Approximate
08:39PM 61.1667 -149.9833 65° Northeast  Level FlightAware Approximate
08:40PM 61.1741 -149.9982 65° Northeast  Level Estimated
08:41PM 61.1741 -149.9982 65° Northeast  Level Estimated
08:42PM 61.1741 -149.9982 65° Northeast  Level Estimated
08:43PM 61.1741 -149.9982 65° Northeast  Level Estimated
08:44PM 61.1741 -149.9982 65° Northeast  Level Estimated
08:45PM 61.1741 -149.9982 65° Northeast  Level Estimated
08:46PM 61.1741 -149.9982 65° Northeast  Level Estimated
08:47PM 61.1741 -149.9982 65° Northeast  Level Estimated
08:48PM 61.1741 -149.9982 65° Northeast  Level Estimated
08:49PM 61.1741 -149.9982 65° Northeast  Level Estimated
08:50PM 61.1741 -149.9982 65° Northeast  Level Estimated
08:51PM 61.1741 -149.9982 65° Northeast  Level Estimated
08:52PM 61.1741 -149.9982 65° Northeast  Level Estimated
08:53PM 61.1741 -149.9982 65° Northeast  Level Estimated
08:54PM 61.1741 -149.9982 65° Northeast  Level Estimated
08:55PM 61.1741 -149.9982 65° Northeast  Level Estimated
08:56PM 61.1741 -149.9982 65° Northeast  Level Estimated
08:57PM 61.1741 -149.9982 65° Northeast  Level Estimated
08:58PM 61.1741 -149.9982 65° Northeast  Level Estimated